Time;durP1;ratioP1;P1;durP2;ratioP2;P2;SDS_P1;SDS_P2;PMS_P1;PMS_P2;Temp;Humidity;BMP_temperature;BMP_pressure;BME280_temperature;BME280_humidity;BME280_pressure;Samples;Min_cycle;Max_cycle;Signal;HPM_P1;HPM_P2
2022/11/04 00:01:15;;;;;;;;;;;;;;;8.98;83.28;99586.41;5027321;28;1868;-77
2022/11/04 00:03:41;;;;;;;;;;;;;;;8.97;82.89;99579.41;5044074;28;2020;-77
2022/11/04 00:06:07;;;;;;;;;;;;;;;8.97;82.99;99580.25;5053242;28;1671;-77
2022/11/04 00:08:34;;;;;;;;;;;;;;;8.97;83.32;99577.56;5048935;28;1870;-77
2022/11/04 00:13:44;;;;;;;;;;;;;;;8.97;82.92;99582.91;5045355;28;1674;-78
2022/11/04 00:18:54;;;;;;;;;;;;;;;8.97;83.03;99590.13;5044442;28;1958;-78
2022/11/04 00:29:31;;;;;;;;;;;;;;;8.97;83.23;99604.41;5045380;28;1822;-78
2022/11/04 00:34:50;;;;;;;;;;;;;;;8.98;83.01;99597.16;4993222;28;1880;-78
2022/11/04 00:37:16;;;;;;;;;;;;;;;8.96;83.05;99589.31;5045480;28;2103;-77
2022/11/04 00:39:42;;;;;;;;;;;;;;;8.97;83.15;99598.19;5041679;28;2115;-77
2022/11/04 00:42:09;;;;;;;;;;;;;;;8.97;82.96;99600.88;5041366;28;2051;-77
2022/11/04 00:44:35;;;;;;;;;;;;;;;8.97;83.24;99590.97;5043658;28;2013;-77
2022/11/04 00:47:01;;;;;;;;;;;;;;;8.96;83.12;99594.69;5024252;28;2006;-77
2022/11/04 00:49:28;;;;;;;;;;;;;;;8.64;83.27;99551.22;5030466;28;1691;-78
2022/11/04 00:51:54;;;;;;;;;;;;;;;8.98;82.87;99594.47;5026683;28;1591;-78
2022/11/04 00:54:20;;;;;;;;;;;;;;;8.97;82.93;99603.56;5027006;28;1628;-78
2022/11/04 00:56:47;;;;;;;;;;;;;;;8.97;82.85;99604.41;5035178;28;5997;-78
2022/11/04 00:59:14;;;;;;;;;;;;;;;8.96;82.78;99597.38;5041629;28;4986;-77
2022/11/04 01:01:40;;;;;;;;;;;;;;;8.97;82.92;99604.41;5040350;28;1691;-77
2022/11/04 01:04:06;;;;;;;;;;;;;;;8.97;83.17;99600.88;5024254;28;3989;-77
2022/11/04 01:06:32;;;;;;;;;;;;;;;8.96;82.93;99600.06;5045684;28;1910;-77
2022/11/04 01:08:59;;;;;;;;;;;;;;;8.97;82.99;99596.34;5045446;28;1943;-77
2022/11/04 01:11:27;;;;;;;;;;;;;;;8.97;83.09;99608.94;5042352;28;1627;-77
2022/11/04 01:13:53;;;;;;;;;;;;;;;8.97;83.23;99601.72;5026868;28;1952;-77
2022/11/04 01:16:19;;;;;;;;;;;;;;;8.97;82.67;99608.94;5025083;28;5164;-78
2022/11/04 01:18:45;;;;;;;;;;;;;;;8.97;83.03;99606.25;5044795;28;1936;-78
2022/11/04 01:21:12;;;;;;;;;;;;;;;8.97;82.82;99601.72;5044444;28;1909;-78
2022/11/04 01:23:38;;;;;;;;;;;;;;;8.97;82.80;99598.19;5025659;28;1960;-77
2022/11/04 01:26:05;;;;;;;;;;;;;;;8.96;83.10;99605.44;5042659;28;2815;-77
2022/11/04 01:28:31;;;;;;;;;;;;;;;8.97;83.01;99614.31;5042816;28;2994;-77
2022/11/04 01:30:57;;;;;;;;;;;;;;;8.97;82.83;99612.47;5043289;28;1981;-77
2022/11/04 01:33:24;;;;;;;;;;;;;;;8.95;83.04;99603.81;5041653;28;1808;-77
2022/11/04 01:35:52;;;;;;;;;;;;;;;8.96;82.98;99602.75;5027115;28;1867;-78
2022/11/04 01:38:18;;;;;;;;;;;;;;;8.97;82.85;99598.19;5043381;28;1754;-77
2022/11/04 01:40:46;;;;;;;;;;;;;;;8.95;82.74;99595.75;5044595;28;1948;-78
2022/11/04 01:43:13;;;;;;;;;;;;;;;8.96;83.05;99589.31;5042532;28;1988;-77
2022/11/04 01:45:39;;;;;;;;;;;;;;;8.96;82.85;99583.13;5013469;28;1854;-77
2022/11/04 01:48:05;;;;;;;;;;;;;;;8.95;83.16;99587.69;5025747;28;1694;-77
2022/11/04 01:50:32;;;;;;;;;;;;;;;8.96;83.05;99593.88;5005413;28;1734;-77
2022/11/04 01:52:58;;;;;;;;;;;;;;;8.96;82.95;99596.56;5033222;28;1832;-77
2022/11/04 01:55:24;;;;;;;;;;;;;;;8.95;82.74;99584.19;5025804;28;2016;-77
2022/11/04 01:57:50;;;;;;;;;;;;;;;8.95;82.80;99590.38;5036316;28;5808;-77
2022/11/04 02:00:17;;;;;;;;;;;;;;;8.95;82.99;99598.44;5039726;28;5038;-77
2022/11/04 02:02:43;;;;;;;;;;;;;;;8.95;82.75;99595.75;5042086;28;5155;-77
2022/11/04 02:05:09;;;;;;;;;;;;;;;8.95;82.93;99593.06;5020189;28;2037;-77
2022/11/04 02:07:36;;;;;;;;;;;;;;;8.96;83.11;99588.50;5028434;28;1621;-77
2022/11/04 02:10:02;;;;;;;;;;;;;;;8.96;82.83;99593.88;5024057;28;1786;-77
2022/11/04 02:15:12;;;;;;;;;;;;;;;8.95;82.89;99593.06;5024869;28;5054;-77
2022/11/04 02:17:38;;;;;;;;;;;;;;;8.96;82.99;99593.88;5025324;28;1732;-77
2022/11/04 02:20:05;;;;;;;;;;;;;;;8.95;82.62;99589.56;5023659;28;1705;-77
2022/11/04 02:22:31;;;;;;;;;;;;;;;8.96;82.78;99593.88;5027201;28;1679;-77
2022/11/04 02:24:58;;;;;;;;;;;;;;;8.96;82.78;99593.88;5024610;28;1914;-77
2022/11/04 02:27:24;;;;;;;;;;;;;;;8.94;82.70;99587.91;5023529;28;2871;-77
2022/11/04 02:29:50;;;;;;;;;;;;;;;8.95;82.68;99592.25;5024821;28;1796;-77
2022/11/04 02:32:16;;;;;;;;;;;;;;;8.95;82.60;99586.88;5026426;28;1829;-77
2022/11/04 02:34:43;;;;;;;;;;;;;;;8.95;82.61;99585.00;5007080;28;1493;-77
2022/11/04 02:37:09;;;;;;;;;;;;;;;8.64;82.72;99527.88;5025550;28;1675;-77
2022/11/04 02:39:35;;;;;;;;;;;;;;;8.98;82.71;99583.75;5005864;28;1968;-77
2022/11/04 02:42:02;;;;;;;;;;;;;;;9.00;82.45;99582.47;5007272;28;1841;-77
2022/11/04 02:44:28;;;;;;;;;;;;;;;9.00;82.50;99589.66;5028656;28;1918;-77
2022/11/04 02:46:56;;;;;;;;;;;;;;;8.99;82.20;99590.72;5027364;28;1802;-77
2022/11/04 02:49:25;;;;;;;;;;;;;;;9.03;82.53;99584.69;5016713;28;2007;-77
2022/11/04 02:51:51;;;;;;;;;;;;;;;9.00;82.40;99592.34;5023639;28;1909;-77
2022/11/04 02:54:17;;;;;;;;;;;;;;;9.02;82.48;99592.94;5044098;28;2119;-77
2022/11/04 02:56:43;;;;;;;;;;;;;;;9.02;82.25;99595.63;5019375;28;1775;-77
2022/11/04 02:59:10;;;;;;;;;;;;;;;9.06;82.03;99594.94;5023433;28;1880;-77
2022/11/04 03:01:36;;;;;;;;;;;;;;;9.07;81.81;99585.03;5035044;28;5478;-77
2022/11/04 03:04:02;;;;;;;;;;;;;;;9.03;81.94;99592.72;5010963;28;5560;-77
2022/11/04 03:06:29;;;;;;;;;;;;;;;9.09;82.08;99588.31;5008090;28;4993;-77
2022/11/04 03:08:55;;;;;;;;;;;;;;;9.04;82.17;99588.19;5024936;28;1809;-77
2022/11/04 03:11:21;;;;;;;;;;;;;;;9.07;82.02;99590.41;5024714;28;1675;-77
2022/11/04 03:13:47;;;;;;;;;;;;;;;9.05;82.37;99579.06;5025530;28;1667;-77
2022/11/04 03:16:14;;;;;;;;;;;;;;;9.09;82.05;99577.56;5010638;28;1883;-77
2022/11/04 03:18:40;;;;;;;;;;;;;;;9.14;81.79;99574.16;5022415;28;5243;-77
2022/11/04 03:21:06;;;;;;;;;;;;;;;9.13;81.69;99576.03;5024005;28;1850;-77
2022/11/04 03:23:32;;;;;;;;;;;;;;;9.13;81.84;99578.72;5023270;28;2015;-77
2022/11/04 03:25:59;;;;;;;;;;;;;;;9.16;81.57;99569.38;5026629;28;1582;-77
2022/11/04 03:28:25;;;;;;;;;;;;;;;9.20;81.44;99568.66;5023912;28;1654;-77
2022/11/04 03:30:51;;;;;;;;;;;;;;;9.17;81.73;99563.75;5022103;28;3077;-77
2022/11/04 03:33:18;;;;;;;;;;;;;;;9.17;81.37;99566.44;5025349;28;1860;-77
2022/11/04 03:35:44;;;;;;;;;;;;;;;9.16;81.58;99572.06;5007745;28;1777;-77
2022/11/04 03:38:10;;;;;;;;;;;;;;;9.10;81.74;99574.63;5024646;28;1758;-77
2022/11/04 03:40:36;;;;;;;;;;;;;;;9.19;81.50;99574.28;5027508;28;1583;-77
2022/11/04 03:43:03;;;;;;;;;;;;;;;9.17;81.12;99562.94;5027074;28;1694;-77
2022/11/04 03:45:29;;;;;;;;;;;;;;;9.22;81.36;99576.50;5027137;28;1914;-77
2022/11/04 03:47:55;;;;;;;;;;;;;;;9.26;81.23;99570.41;5016496;28;1850;-77
2022/11/04 03:50:22;;;;;;;;;;;;;;;9.12;81.72;99568.19;5024823;28;1922;-77
2022/11/04 03:52:48;;;;;;;;;;;;;;;9.07;81.67;99575.09;5042777;28;2031;-77
2022/11/04 03:55:14;;;;;;;;;;;;;;;9.05;81.94;99579.06;5035407;28;2011;-77
2022/11/04 03:57:40;;;;;;;;;;;;;;;9.10;81.70;99574.63;5029512;28;1696;-77
2022/11/04 04:00:07;;;;;;;;;;;;;;;9.10;81.85;99581.88;5026768;28;1608;-77
2022/11/04 04:02:34;;;;;;;;;;;;;;;9.14;81.58;99582.22;5009247;28;1845;-77
2022/11/04 04:05:00;;;;;;;;;;;;;;;8.76;81.68;99525.22;5003415;28;5069;-77
2022/11/04 04:07:26;;;;;;;;;;;;;;;9.05;81.78;99577.19;5026755;28;5377;-77
2022/11/04 04:09:52;;;;;;;;;;;;;;;9.02;81.81;99576.84;5027718;28;1595;-77
2022/11/04 04:12:19;;;;;;;;;;;;;;;9.08;81.58;99570.53;5009639;28;4316;-77
2022/11/04 04:14:45;;;;;;;;;;;;;;;9.05;81.76;99571.81;5018759;28;1733;-77
2022/11/04 04:17:11;;;;;;;;;;;;;;;9.14;81.81;99583.03;5027243;28;1711;-77
2022/11/04 04:19:38;;;;;;;;;;;;;;;9.07;81.56;99580.47;5027658;28;1699;-77
2022/11/04 04:22:04;;;;;;;;;;;;;;;9.02;81.65;99580.34;5032149;28;1736;-77
2022/11/04 04:29:55;;;;;;;;;;;;;;;9.00;82.12;99571.72;5008698;28;1795;-77
2022/11/04 04:32:21;;;;;;;;;;;;;;;9.12;81.76;99565.50;5008413;28;1764;-77
2022/11/04 04:34:47;;;;;;;;;;;;;;;9.10;81.73;99568.44;5028608;28;1727;-77
2022/11/04 04:37:14;;;;;;;;;;;;;;;9.07;81.79;99563.53;5006684;28;2829;-77
2022/11/04 04:45:07;;;;;;;;;;;;;;;9.04;81.64;99580.94;5043459;28;1975;-77
2022/11/04 04:47:33;;;;;;;;;;;;;;;9.02;81.81;99592.94;5028397;28;2041;-77
2022/11/04 04:49:59;;;;;;;;;;;;;;;9.01;81.63;99584.09;5008720;28;1935;-77
2022/11/04 04:52:26;;;;;;;;;;;;;;;9.06;81.52;99589.59;5026741;28;1678;-77
2022/11/04 04:54:53;;;;;;;;;;;;;;;9.06;81.36;99588.78;5010196;28;1850;-77
2022/11/04 04:57:19;;;;;;;;;;;;;;;9.08;81.44;99608.94;5009402;28;1819;-77
2022/11/04 04:59:46;;;;;;;;;;;;;;;9.11;81.43;99599.59;5029094;28;1683;-77
2022/11/04 05:02:12;;;;;;;;;;;;;;;9.06;81.43;99610.25;5008141;28;1687;-77
2022/11/04 05:04:38;;;;;;;;;;;;;;;9.09;81.55;99609.78;5008537;28;1989;-76
2022/11/04 05:07:05;;;;;;;;;;;;;;;9.22;80.82;99601.47;5024849;28;1821;-77
2022/11/04 05:09:32;;;;;;;;;;;;;;;9.33;80.53;99605.22;5024807;28;1701;-77
2022/11/04 05:11:58;;;;;;;;;;;;;;;9.44;79.84;99608.94;5008469;28;1965;-77
2022/11/04 05:14:24;;;;;;;;;;;;;;;9.48;79.88;99602.06;5013589;28;1767;-77
2022/11/04 05:16:51;;;;;;;;;;;;;;;9.44;80.04;99617.00;5012467;28;6244;-77
2022/11/04 05:19:17;;;;;;;;;;;;;;;9.39;79.96;99608.84;5032748;28;1896;-77
2022/11/04 05:21:43;;;;;;;;;;;;;;;9.39;80.09;99612.34;5014519;28;2808;-77
2022/11/04 05:24:09;;;;;;;;;;;;;;;9.24;80.46;99609.31;5015005;28;1946;-77
2022/11/04 05:26:36;;;;;;;;;;;;;;;9.59;79.21;99612.00;5037778;28;1627;-77
2022/11/04 05:29:02;;;;;;;;;;;;;;;9.73;78.55;99613.34;5020198;28;1709;-77
2022/11/04 05:31:29;;;;;;;;;;;;;;;9.50;79.47;99611.53;5006380;28;1614;-77
2022/11/04 05:33:55;;;;;;;;;;;;;;;9.48;79.60;99600.19;5011185;28;4345;-77
2022/11/04 05:36:21;;;;;;;;;;;;;;;9.68;78.94;99602.50;5031987;28;1934;-77
2022/11/04 05:38:48;;;;;;;;;;;;;;;9.62;78.91;99608.00;5032722;28;1657;-77
2022/11/04 05:41:24;;;;;;;;;;;;;;;9.51;79.55;99598.91;5014626;28;1584;-77
2022/11/04 05:43:50;;;;;;;;;;;;;;;9.53;79.04;99602.19;5034870;28;1971;-77
2022/11/04 05:46:17;;;;;;;;;;;;;;;9.37;80.05;99605.56;5032353;28;3053;-77
2022/11/04 05:48:43;;;;;;;;;;;;;;;9.59;79.27;99608.47;5016557;28;1803;-77
2022/11/04 05:51:09;;;;;;;;;;;;;;;9.23;80.42;99613.84;5034264;28;1970;-77
2022/11/04 05:53:36;;;;;;;;;;;;;;;9.28;80.31;99624.72;5033584;28;1569;-77
2022/11/04 05:56:02;;;;;;;;;;;;;;;9.46;79.85;99625.66;5035707;28;1697;-77
2022/11/04 05:58:28;;;;;;;;;;;;;;;9.58;79.12;99626.47;5035831;28;1908;-77
2022/11/04 06:00:54;;;;;;;;;;;;;;;9.62;79.06;99635.72;5035998;28;1618;-77
2022/11/04 06:03:21;;;;;;;;;;;;;;;9.36;79.75;99634.31;5042521;28;2034;-77
2022/11/04 06:05:47;;;;;;;;;;;;;;;9.44;79.59;99630.44;5039835;28;1906;-77
2022/11/04 06:08:13;;;;;;;;;;;;;;;9.77;78.33;99637.91;5042203;28;1635;-77
2022/11/04 06:10:39;;;;;;;;;;;;;;;9.75;78.38;99643.50;5046972;28;1947;-77
2022/11/04 06:13:06;;;;;;;;;;;;;;;9.60;78.82;99650.44;5051352;28;1888;-77
2022/11/04 06:15:32;;;;;;;;;;;;;;;9.62;78.72;99649.16;5046247;28;1900;-77
2022/11/04 06:17:58;;;;;;;;;;;;;;;9.72;78.33;99657.44;5041274;28;1994;-77
2022/11/04 06:20:25;;;;;;;;;;;;;;;9.63;78.37;99652.66;5041168;28;4928;-77
2022/11/04 06:22:51;;;;;;;;;;;;;;;9.84;77.87;99641.28;5051237;28;5560;-77
2022/11/04 06:25:17;;;;;;;;;;;;;;;9.72;78.23;99643.19;5014789;28;1914;-77
2022/11/04 06:27:44;;;;;;;;;;;;;;;9.59;78.91;99655.00;5039441;28;4386;-77
2022/11/04 06:30:10;;;;;;;;;;;;;;;9.66;78.36;99658.38;5047789;28;2056;-77
2022/11/04 06:32:36;;;;;;;;;;;;;;;9.61;79.02;99662.81;5057399;28;1946;-77
2022/11/04 06:35:07;;;;;;;;;;;;;;;9.55;78.71;99660.00;5045732;28;1785;-77
2022/11/04 06:37:34;;;;;;;;;;;;;;;9.58;78.84;99671.34;5053032;28;3478;-77
2022/11/04 06:40:01;;;;;;;;;;;;;;;9.52;78.82;99673.91;5058445;28;2960;-77
2022/11/04 06:42:27;;;;;;;;;;;;;;;9.54;78.66;99673.69;5029799;28;1857;-77
2022/11/04 06:44:53;;;;;;;;;;;;;;;9.54;78.92;99665.63;5039228;28;3526;-77
2022/11/04 06:47:19;;;;;;;;;;;;;;;9.58;78.79;99657.91;5034893;28;1773;-77
2022/11/04 06:49:46;;;;;;;;;;;;;;;9.54;78.89;99668.31;5054062;28;1391;-77
2022/11/04 06:52:17;;;;;;;;;;;;;;;9.59;78.71;99659.53;5050844;28;3310;-77
2022/11/04 06:54:43;;;;;;;;;;;;;;;9.54;78.82;99660.25;5036146;28;1140;-77
2022/11/04 06:57:10;;;;;;;;;;;;;;;9.58;78.74;99669.47;5058357;28;2217;-77
2022/11/04 06:59:36;;;;;;;;;;;;;;;9.57;78.57;99665.16;5032771;28;1994;-77
2022/11/04 07:02:02;;;;;;;;;;;;;;;9.62;78.48;99661.75;5038927;28;2319;-77
2022/11/04 07:04:29;;;;;;;;;;;;;;;9.62;78.65;99664.44;5034910;28;1945;-77
2022/11/04 07:06:55;;;;;;;;;;;;;;;9.15;78.64;99602.63;5034977;28;1696;-77
2022/11/04 07:09:21;;;;;;;;;;;;;;;9.42;79.10;99662.13;5034189;28;1699;-77
2022/11/04 07:11:48;;;;;;;;;;;;;;;9.27;79.76;99662.59;5034389;28;1452;-77
2022/11/04 07:14:14;;;;;;;;;;;;;;;9.48;78.96;99662.00;5034464;28;1885;-77
2022/11/04 07:16:40;;;;;;;;;;;;;;;9.36;79.24;99652.31;5023542;28;1967;-77
2022/11/04 07:19:07;;;;;;;;;;;;;;;9.36;79.21;99649.63;5034450;28;1529;-77
2022/11/04 07:21:33;;;;;;;;;;;;;;;9.18;80.00;99650.56;5031954;28;3158;-77
2022/11/04 07:23:59;;;;;;;;;;;;;;;9.23;79.90;99647.97;5027541;28;2358;-77
2022/11/04 07:26:25;;;;;;;;;;;;;;;9.15;80.16;99641.09;5014040;28;6252;-77
2022/11/04 07:28:54;;;;;;;;;;;;;;;9.22;80.10;99646.34;5033446;28;5747;-77
2022/11/04 07:31:25;;;;;;;;;;;;;;;9.18;79.97;99648.69;5036418;28;1765;-77
2022/11/04 07:33:51;;;;;;;;;;;;;;;9.23;80.11;99650.66;5039428;28;5166;-77
2022/11/04 07:36:18;;;;;;;;;;;;;;;9.23;80.04;99654.16;5049382;28;1936;-77
2022/11/04 07:38:44;;;;;;;;;;;;;;;9.18;79.84;99658.63;5047579;28;1679;-77
2022/11/04 07:41:10;;;;;;;;;;;;;;;9.10;80.15;99654.41;5056594;28;1963;-77
2022/11/04 07:43:36;;;;;;;;;;;;;;;9.16;79.82;99656.16;5049892;28;1844;-77
2022/11/04 07:46:03;;;;;;;;;;;;;;;9.08;80.29;99659.16;5049822;28;5187;-77
2022/11/04 07:48:29;;;;;;;;;;;;;;;8.95;80.88;99651.34;5044519;28;1971;-77
2022/11/04 07:50:55;;;;;;;;;;;;;;;9.02;80.54;99658.22;5046462;28;2008;-77
2022/11/04 07:53:22;;;;;;;;;;;;;;;8.82;81.33;99657.72;5046276;28;1925;-77
2022/11/04 07:55:49;;;;;;;;;;;;;;;8.87;81.01;99650.59;5055113;28;1120;-77
2022/11/04 07:58:16;;;;;;;;;;;;;;;8.87;81.30;99645.25;5047474;28;2935;-77
2022/11/04 08:00:42;;;;;;;;;;;;;;;8.81;81.43;99643.47;5053061;28;2265;-76
2022/11/04 08:03:09;;;;;;;;;;;;;;;8.77;81.28;99636.94;5050444;28;1924;-77
2022/11/04 08:05:35;;;;;;;;;;;;;;;8.80;81.31;99643.72;5039526;28;1906;-77
2022/11/04 08:08:02;;;;;;;;;;;;;;;8.94;80.86;99647.84;5049977;28;2046;-77
2022/11/04 08:10:28;;;;;;;;;;;;;;;8.87;80.98;99650.59;5053418;28;1396;-77
2022/11/04 08:12:55;;;;;;;;;;;;;;;8.78;81.26;99654.69;5038956;28;1409;-77
2022/11/04 08:15:21;;;;;;;;;;;;;;;8.93;80.81;99664.16;5045931;28;2219;-77
2022/11/04 08:17:47;;;;;;;;;;;;;;;8.74;81.87;99661.56;5032340;28;1625;-77
2022/11/04 08:20:14;;;;;;;;;;;;;;;8.75;81.53;99665.88;5020207;28;1849;-77
2022/11/04 08:22:40;;;;;;;;;;;;;;;8.87;81.16;99658.66;5048226;28;1709;-77
2022/11/04 08:25:06;;;;;;;;;;;;;;;8.75;81.40;99657.81;5049832;28;1909;-77
2022/11/04 08:27:33;;;;;;;;;;;;;;;8.72;81.55;99655.59;5037046;28;1369;-77
2022/11/04 08:29:59;;;;;;;;;;;;;;;8.76;81.63;99648.72;5046417;28;1599;-77
2022/11/04 08:32:25;;;;;;;;;;;;;;;8.80;81.59;99641.03;5036610;28;2131;-77
2022/11/04 08:34:52;;;;;;;;;;;;;;;8.75;81.63;99638.22;5027903;28;2671;-77
2022/11/04 08:37:18;;;;;;;;;;;;;;;8.78;81.40;99643.94;5051429;28;5536;-77
2022/11/04 08:39:44;;;;;;;;;;;;;;;8.82;81.39;99638.91;5049262;28;5071;-77
2022/11/04 08:42:13;;;;;;;;;;;;;;;8.82;81.32;99638.91;5040581;28;5177;-77
2022/11/04 08:44:39;;;;;;;;;;;;;;;8.82;81.23;99630.88;5035719;28;1973;-77
2022/11/04 08:47:05;;;;;;;;;;;;;;;8.83;81.28;99644.06;5038736;28;1108;-77
2022/11/04 08:49:32;;;;;;;;;;;;;;;8.81;81.17;99632.75;5050833;28;1916;-77
2022/11/04 08:51:59;;;;;;;;;;;;;;;8.95;80.58;99629.84;5036140;28;1470;-77
2022/11/04 08:54:25;;;;;;;;;;;;;;;8.86;81.04;99638.25;5046923;28;4628;-77
2022/11/04 08:56:55;;;;;;;;;;;;;;;8.86;81.16;99640.13;5052551;28;960;-77
2022/11/04 08:59:23;;;;;;;;;;;;;;;8.86;80.94;99648.97;5048154;28;1897;-77
2022/11/04 09:01:52;;;;;;;;;;;;;;;8.91;80.59;99642.91;5034348;28;1303;-78
2022/11/04 09:04:19;;;;;;;;;;;;;;;8.98;80.75;99640.13;5050038;28;1817;-77
2022/11/04 09:06:46;;;;;;;;;;;;;;;8.91;80.84;99634.84;5053900;28;3424;-77
2022/11/04 09:09:12;;;;;;;;;;;;;;;9.03;80.53;99634.88;5030628;28;1875;-77
2022/11/04 09:11:38;;;;;;;;;;;;;;;8.96;80.71;99621.56;5034867;28;1195;-78
2022/11/04 09:14:05;;;;;;;;;;;;;;;8.87;80.63;99617.56;5036166;28;2357;-78
2022/11/04 09:16:31;;;;;;;;;;;;;;;8.94;80.82;99618.31;5051712;28;1115;-77
2022/11/04 09:18:58;;;;;;;;;;;;;;;8.87;80.60;99614.88;5049650;28;1872;-77
2022/11/04 09:21:24;;;;;;;;;;;;;;;8.76;81.35;99616.50;5052352;28;1320;-77
2022/11/04 09:23:50;;;;;;;;;;;;;;;8.76;81.38;99618.38;5042427;28;1886;-77
2022/11/04 09:26:17;;;;;;;;;;;;;;;8.74;81.57;99615.94;5054050;28;1910;-77
2022/11/04 09:28:46;;;;;;;;;;;;;;;8.86;81.06;99615.94;5055371;28;1199;-78
2022/11/04 09:31:12;;;;;;;;;;;;;;;8.78;80.97;99616.28;5036897;28;2488;-78
2022/11/04 09:33:41;;;;;;;;;;;;;;;8.80;81.32;99609.63;5037338;28;1315;-77
2022/11/04 09:36:07;;;;;;;;;;;;;;;8.77;81.52;99618.16;5051662;28;1389;-77
2022/11/04 09:38:34;;;;;;;;;;;;;;;8.77;81.47;99620.03;5052177;28;1785;-77
2022/11/04 09:41:00;;;;;;;;;;;;;;;8.89;81.40;99622.72;5047656;28;1750;-77
2022/11/04 09:43:26;;;;;;;;;;;;;;;8.78;81.07;99627.81;5047251;28;5212;-77
2022/11/04 09:45:53;;;;;;;;;;;;;;;8.77;81.06;99622.72;5032112;28;5601;-77
2022/11/04 09:48:19;;;;;;;;;;;;;;;8.76;81.15;99610.31;5047027;28;1814;-77
2022/11/04 09:50:46;;;;;;;;;;;;;;;8.68;81.52;99618.69;5053111;28;4455;-77
2022/11/04 09:53:12;;;;;;;;;;;;;;;8.70;81.91;99616.59;5045500;28;3987;-77
2022/11/04 09:55:40;;;;;;;;;;;;;;;8.68;81.52;99622.22;5021157;28;1173;-77
2022/11/04 09:58:06;;;;;;;;;;;;;;;8.75;81.54;99616.75;5054390;28;3686;-77
2022/11/04 10:00:33;;;;;;;;;;;;;;;8.64;82.02;99611.09;5032404;28;1384;-77
2022/11/04 10:02:59;;;;;;;;;;;;;;;8.70;81.49;99608.53;5031530;28;2933;-77
2022/11/04 10:05:25;;;;;;;;;;;;;;;8.60;82.13;99615.31;5035472;28;1981;-77
2022/11/04 10:07:52;;;;;;;;;;;;;;;8.58;81.99;99606.66;5031106;28;1982;-77
2022/11/04 10:10:18;;;;;;;;;;;;;;;8.76;81.42;99610.31;5033885;28;5487;-77
2022/11/04 10:12:44;;;;;;;;;;;;;;;8.74;81.30;99615.09;5029340;28;2004;-77
2022/11/04 10:15:11;;;;;;;;;;;;;;;8.70;81.39;99609.38;5028259;28;5466;-77
2022/11/04 10:17:37;;;;;;;;;;;;;;;8.66;81.71;99615.44;5045483;28;1974;-77
2022/11/04 10:20:04;;;;;;;;;;;;;;;8.96;80.42;99608.13;5046746;28;1528;-77
2022/11/04 10:22:30;;;;;;;;;;;;;;;8.74;81.22;99602.50;5042751;28;2057;-77
2022/11/04 10:24:56;;;;;;;;;;;;;;;8.69;81.68;99607.75;5049408;28;2876;-77
2022/11/04 10:27:22;;;;;;;;;;;;;;;8.85;80.74;99593.66;5054146;28;2216;-77
2022/11/04 10:29:49;;;;;;;;;;;;;;;8.95;80.55;99600.31;5055249;28;2233;-77
2022/11/04 10:32:15;;;;;;;;;;;;;;;8.95;80.49;99595.75;5028538;28;5392;-77
2022/11/04 10:34:41;;;;;;;;;;;;;;;8.90;80.60;99584.06;5035025;28;1981;-77
2022/11/04 10:37:08;;;;;;;;;;;;;;;8.79;81.01;99591.06;5050588;28;1876;-77
2022/11/04 10:39:36;;;;;;;;;;;;;;;8.70;81.53;99589.75;5018541;28;2752;-77
2022/11/04 10:42:03;;;;;;;;;;;;;;;8.81;80.88;99591.66;5024614;28;2104;-77
2022/11/04 10:44:29;;;;;;;;;;;;;;;8.87;80.75;99582.66;5033660;28;1807;-77
2022/11/04 10:46:55;;;;;;;;;;;;;;;8.80;80.83;99573.91;5049820;28;2042;-77
2022/11/04 10:49:24;;;;;;;;;;;;;;;8.67;81.51;99582.16;5034478;28;2002;-77
2022/11/04 10:51:50;;;;;;;;;;;;;;;8.68;81.52;99581.09;5028787;28;1971;-77
2022/11/04 10:54:16;;;;;;;;;;;;;;;8.81;81.01;99583.59;5029212;28;1938;-77
2022/11/04 10:56:43;;;;;;;;;;;;;;;8.75;81.39;99589.88;5033273;28;1775;-77
2022/11/04 10:59:09;;;;;;;;;;;;;;;8.81;81.14;99583.59;5016015;28;1551;-77
2022/11/04 11:01:35;;;;;;;;;;;;;;;8.70;81.50;99587.06;5039408;28;1997;-77
2022/11/04 11:04:02;;;;;;;;;;;;;;;8.63;81.73;99579.94;5016074;28;2008;-77
2022/11/04 11:06:28;;;;;;;;;;;;;;;8.60;82.00;99579.59;5011967;28;5194;-77
2022/11/04 11:08:55;;;;;;;;;;;;;;;8.62;82.05;99582.88;5041132;28;5132;-77
2022/11/04 11:11:21;;;;;;;;;;;;;;;8.64;81.86;99591.50;5047217;28;1793;-77
2022/11/04 11:13:48;;;;;;;;;;;;;;;8.71;81.49;99592.22;5020385;28;5052;-77
2022/11/04 11:16:16;;;;;;;;;;;;;;;8.69;81.59;99591.63;5020813;28;1791;-77
2022/11/04 11:18:42;;;;;;;;;;;;;;;8.69;81.80;99599.69;5016417;28;3286;-77
2022/11/04 11:21:08;;;;;;;;;;;;;;;8.65;81.95;99609.25;5034643;28;1996;-77
2022/11/04 11:23:35;;;;;;;;;;;;;;;8.62;81.79;99607.84;5031553;28;1830;-77
2022/11/04 11:26:02;;;;;;;;;;;;;;;8.61;81.84;99605.38;5037034;28;2648;-77
2022/11/04 11:28:28;;;;;;;;;;;;;;;8.62;81.87;99605.16;5035471;28;1841;-77
2022/11/04 11:30:55;;;;;;;;;;;;;;;8.62;82.07;99605.16;5050523;28;1486;-77
2022/11/04 11:33:21;;;;;;;;;;;;;;;8.66;81.73;99602.00;5046178;28;3789;-77
2022/11/04 11:35:47;;;;;;;;;;;;;;;8.63;82.05;99597.91;5054594;28;1664;-77
2022/11/04 11:38:13;;;;;;;;;;;;;;;8.62;81.95;99588.25;5035544;28;3244;-77
2022/11/04 11:40:40;;;;;;;;;;;;;;;8.66;81.79;99593.97;5057106;28;2009;-77
2022/11/04 11:43:06;;;;;;;;;;;;;;;8.63;81.76;99588.00;5050208;28;1556;-77
2022/11/04 11:45:32;;;;;;;;;;;;;;;8.64;81.76;99580.75;5034798;28;1906;-77
2022/11/04 11:47:59;;;;;;;;;;;;;;;8.63;82.24;99579.94;5015190;28;2101;-77
2022/11/04 11:50:30;;;;;;;;;;;;;;;8.69;81.89;99580.06;5034306;28;2747;-77
2022/11/04 11:52:56;;;;;;;;;;;;;;;8.65;81.90;99574.34;5048958;28;2084;-77
2022/11/04 11:55:23;;;;;;;;;;;;;;;8.65;81.95;99569.00;5055319;28;2040;-77
2022/11/04 11:57:50;;;;;;;;;;;;;;;8.74;81.60;99570.28;5033651;28;1902;-77
2022/11/04 12:00:17;;;;;;;;;;;;;;;8.70;81.84;99573.66;5050166;28;1810;-77
2022/11/04 12:02:43;;;;;;;;;;;;;;;8.68;81.56;99568.53;5027687;28;1361;-77
2022/11/04 12:05:10;;;;;;;;;;;;;;;8.64;81.81;99565.47;5031692;28;2696;-77
2022/11/04 12:07:36;;;;;;;;;;;;;;;8.69;81.63;99561.28;5052913;28;3792;-77
2022/11/04 12:10:02;;;;;;;;;;;;;;;8.73;81.72;99563.25;5038247;28;1944;-77
2022/11/04 12:12:28;;;;;;;;;;;;;;;8.71;81.90;99560.00;5051416;28;1412;-77
2022/11/04 12:14:55;;;;;;;;;;;;;;;8.71;81.68;99562.69;5039841;28;1623;-77
2022/11/04 12:17:21;;;;;;;;;;;;;;;8.70;81.79;99562.91;5044928;28;5365;-77
2022/11/04 12:19:47;;;;;;;;;;;;;;;8.74;81.47;99569.47;5047377;28;1639;-77
2022/11/04 12:22:14;;;;;;;;;;;;;;;8.73;81.41;99576.69;5048270;28;4501;-77
2022/11/04 12:24:40;;;;;;;;;;;;;;;8.71;81.92;99570.75;5037822;28;1262;-77
2022/11/04 12:27:07;;;;;;;;;;;;;;;8.76;81.39;99564.66;5053088;28;1902;-77
2022/11/04 12:29:35;;;;;;;;;;;;;;;8.74;81.63;99564.91;5029446;28;1895;-77
2022/11/04 12:32:02;;;;;;;;;;;;;;;8.76;81.37;99561.97;5054853;28;1805;-77
2022/11/04 12:34:28;;;;;;;;;;;;;;;8.73;81.27;99562.44;5043865;28;4657;-77
2022/11/04 12:36:54;;;;;;;;;;;;;;;8.77;81.54;99551.03;5050294;28;3315;-77
2022/11/04 12:39:21;;;;;;;;;;;;;;;8.78;81.18;99547.28;5056062;28;3775;-77
2022/11/04 12:41:47;;;;;;;;;;;;;;;8.76;81.69;99548.56;5052019;28;1739;-77
2022/11/04 12:44:13;;;;;;;;;;;;;;;8.79;81.44;99545.41;5049565;28;2610;-77
2022/11/04 12:46:40;;;;;;;;;;;;;;;8.78;81.17;99538.41;5037842;28;2874;-77
2022/11/04 12:49:07;;;;;;;;;;;;;;;8.75;81.28;99533.50;5053350;28;2002;-77
2022/11/04 12:51:33;;;;;;;;;;;;;;;8.76;81.62;99537.81;5031903;28;2249;-77
2022/11/04 12:53:59;;;;;;;;;;;;;;;8.77;81.16;99532.22;5055458;28;2364;-77
2022/11/04 12:56:26;;;;;;;;;;;;;;;8.89;81.20;99524.19;5038543;28;2846;-77
2022/11/04 12:58:52;;;;;;;;;;;;;;;8.84;80.91;99524.06;5051858;28;1076;-77
2022/11/04 13:01:18;;;;;;;;;;;;;;;8.80;81.33;99523.72;5061355;28;1674;-77
2022/11/04 13:03:45;;;;;;;;;;;;;;;8.78;81.17;99525.00;5051071;28;2036;-77
2022/11/04 13:06:11;;;;;;;;;;;;;;;8.78;81.45;99530.38;5028101;28;1910;-77
2022/11/04 13:08:37;;;;;;;;;;;;;;;8.78;81.48;99528.50;5054480;28;1585;-77
2022/11/04 13:11:04;;;;;;;;;;;;;;;8.90;81.05;99528.50;5037629;28;2235;-77
2022/11/04 13:13:30;;;;;;;;;;;;;;;8.82;81.40;99518.09;5037754;28;1828;-77
2022/11/04 13:15:56;;;;;;;;;;;;;;;8.83;81.03;99527.81;5051968;28;1124;-77
2022/11/04 13:18:22;;;;;;;;;;;;;;;8.76;81.67;99519.03;5021417;28;1562;-77
2022/11/04 13:20:49;;;;;;;;;;;;;;;8.80;81.48;99512.97;5047420;28;3599;-76
2022/11/04 13:23:15;;;;;;;;;;;;;;;8.87;81.06;99512.84;5051258;28;5208;-77
2022/11/04 13:25:41;;;;;;;;;;;;;;;8.96;80.80;99516.00;5054627;28;1906;-76
2022/11/04 13:28:08;;;;;;;;;;;;;;;9.04;80.21;99513.78;5055140;28;5036;-77
2022/11/04 13:30:34;;;;;;;;;;;;;;;8.98;80.20;99516.59;5054362;28;1833;-77
2022/11/04 13:33:00;;;;;;;;;;;;;;;9.21;79.71;99516.56;5039926;28;1999;-76